createdAt,value
2022-09-12T00:01:17.001Z,67.16
2022-09-12T00:03:44.343Z,67.22
2022-09-12T00:06:20.432Z,67.61
2022-09-12T00:08:49.249Z,67.60
2022-09-12T00:11:16.139Z,67.66
2022-09-12T00:13:43.707Z,67.73
2022-09-12T00:16:25.386Z,67.56
2022-09-12T00:18:53.863Z,67.65
2022-09-12T00:21:22.147Z,67.63
2022-09-12T00:23:52.480Z,67.59
2022-09-12T00:26:20.621Z,67.50
2022-09-12T00:28:47.541Z,67.29
2022-09-12T00:31:21.980Z,67.10
2022-09-12T00:33:48.695Z,66.93
2022-09-12T00:36:18.462Z,66.93
2022-09-12T00:38:46.398Z,66.77
2022-09-12T00:41:26.495Z,66.82
2022-09-12T00:43:55.609Z,66.56
2022-09-12T00:46:25.267Z,66.45
2022-09-12T00:49:04.520Z,66.28
2022-09-12T00:51:33.980Z,66.20
2022-09-12T00:54:06.723Z,65.94
2022-09-12T00:56:33.449Z,66.30
2022-09-12T00:59:15.117Z,66.40
2022-09-12T01:01:45.192Z,66.35
2022-09-12T01:04:13.011Z,66.04
2022-09-12T01:06:43.238Z,66.32
2022-09-12T01:09:15.661Z,66.21
2022-09-12T01:11:46.247Z,66.29
2022-09-12T01:14:15.589Z,66.04
2022-09-12T01:16:42.972Z,66.16
2022-09-12T01:19:25.045Z,66.29
2022-09-12T01:22:04.539Z,66.13
2022-09-12T01:24:31.325Z,66.36
2022-09-12T01:27:35.461Z,66.48
2022-09-12T01:30:23.985Z,66.42
2022-09-12T01:33:09.849Z,66.35
2022-09-12T01:36:11.546Z,66.37
2022-09-12T01:38:47.953Z,66.24
2022-09-12T01:41:41.389Z,66.45
2022-09-12T01:44:15.252Z,66.28
2022-09-12T01:47:02.935Z,66.30
2022-09-12T01:49:40.207Z,66.15
2022-09-12T01:52:33.178Z,66.28
2022-09-12T01:55:34.905Z,66.14
2022-09-12T01:58:36.513Z,66.25
2022-09-12T02:01:10.201Z,66.17
2022-09-12T02:03:47.425Z,65.78
2022-09-12T02:06:22.729Z,66.10
2022-09-12T02:09:01.721Z,66.19
2022-09-12T02:11:31.514Z,66.18
2022-09-12T02:14:01.843Z,66.02
2022-09-12T02:16:36.711Z,66.12
2022-09-12T02:19:09.993Z,66.04
2022-09-12T02:21:44.019Z,66.16
2022-09-12T02:24:14.755Z,66.39
2022-09-12T02:26:55.133Z,66.34
2022-09-12T02:29:21.815Z,66.16
2022-09-12T02:31:54.327Z,66.14
2022-09-12T02:34:49.891Z,66.39
2022-09-12T02:37:38.649Z,65.91
2022-09-12T02:40:07.206Z,65.91
2022-09-12T02:42:33.910Z,65.95
2022-09-12T02:45:00.682Z,65.82
2022-09-12T02:47:39.011Z,65.67
2022-09-12T02:50:08.255Z,65.86
2022-09-12T02:52:36.225Z,66.06
2022-09-12T02:55:05.380Z,65.71
2022-09-12T02:57:32.175Z,65.57
2022-09-12T03:00:01.978Z,65.61
2022-09-12T03:02:37.115Z,65.50
2022-09-12T03:05:31.740Z,65.47
2022-09-12T03:08:13.401Z,65.32
2022-09-12T03:11:10.509Z,65.38
2022-09-12T03:14:00.306Z,65.64
2022-09-12T03:16:32.723Z,65.58
2022-09-12T03:19:09.208Z,66.02
2022-09-12T03:21:55.251Z,65.50
2022-09-12T03:24:38.207Z,65.87
2022-09-12T03:27:20.298Z,65.49
2022-09-12T03:29:48.916Z,65.54
2022-09-12T03:32:15.924Z,65.54
2022-09-12T03:34:42.640Z,65.35
2022-09-12T03:37:09.248Z,65.44
2022-09-12T03:39:36.037Z,65.51
2022-09-12T03:42:02.657Z,65.56
2022-09-12T03:44:32.121Z,65.55
2022-09-12T03:47:00.314Z,65.82
2022-09-12T03:49:26.929Z,65.79
2022-09-12T03:51:53.879Z,65.88
2022-09-12T03:54:20.482Z,65.90
2022-09-12T03:56:47.177Z,65.93
2022-09-12T03:59:13.777Z,65.81
2022-09-12T04:01:42.044Z,65.88
2022-09-12T04:04:08.993Z,65.80
2022-09-12T04:06:35.699Z,65.56
2022-09-12T04:09:02.444Z,65.60
2022-09-12T04:11:29.079Z,65.62
2022-09-12T04:13:55.730Z,65.37
2022-09-12T04:16:22.620Z,65.27
2022-09-12T04:18:49.285Z,65.39
2022-09-12T04:21:18.666Z,65.46
2022-09-12T04:23:45.361Z,65.83
2022-09-12T04:26:13.921Z,65.82
2022-09-12T04:28:41.563Z,65.62
2022-09-12T04:31:12.615Z,65.59
2022-09-12T04:33:39.902Z,65.61
2022-09-12T04:36:09.788Z,65.65
2022-09-12T04:38:36.881Z,65.51
2022-09-12T04:41:31.116Z,65.31
2022-09-12T04:44:03.700Z,65.46
2022-09-12T04:46:39.347Z,65.44
2022-09-12T04:49:06.811Z,65.49
2022-09-12T04:51:36.061Z,65.17
2022-09-12T04:54:09.123Z,65.16
2022-09-12T04:56:43.136Z,64.93
2022-09-12T04:59:11.984Z,65.08
2022-09-12T05:01:39.398Z,64.86
2022-09-12T05:04:06.691Z,64.31
2022-09-12T05:06:35.955Z,64.58
2022-09-12T05:09:05.378Z,64.69
2022-09-12T05:12:02.153Z,64.21
2022-09-12T05:14:21.388Z,64.50
2022-09-12T05:16:49.683Z,64.36
2022-09-12T05:19:17.300Z,64.01
2022-09-12T05:21:43.928Z,64.08
2022-09-12T05:24:11.710Z,63.96
2022-09-12T05:26:38.837Z,63.79
2022-09-12T05:29:07.235Z,63.74
2022-09-12T05:31:35.066Z,63.54
2022-09-12T05:34:06.356Z,63.30
2022-09-12T05:36:33.386Z,63.24
2022-09-12T05:39:00.877Z,63.16
2022-09-12T05:41:30.965Z,62.94
2022-09-12T05:43:59.554Z,63.28
2022-09-12T05:46:36.675Z,62.74
2022-09-12T05:49:05.617Z,62.70
2022-09-12T05:51:35.266Z,62.49
2022-09-12T05:54:06.038Z,62.25
2022-09-12T05:56:34.829Z,62.09
2022-09-12T05:59:03.830Z,61.92
2022-09-12T06:01:32.300Z,61.68
2022-09-12T06:04:01.031Z,61.35
2022-09-12T06:06:29.608Z,61.15
2022-09-12T06:08:59.493Z,61.41
2022-09-12T06:11:27.179Z,60.76
2022-09-12T06:13:53.890Z,60.63
2022-09-12T06:16:26.328Z,60.66
2022-09-12T06:18:56.666Z,60.71
2022-09-12T06:21:24.798Z,60.25
2022-09-12T06:23:55.494Z,60.18
2022-09-12T06:26:25.836Z,59.72
2022-09-12T06:34:16.639Z,59.20
2022-09-12T06:36:46.611Z,58.70
2022-09-12T06:39:16.369Z,58.45
2022-09-12T06:41:44.261Z,58.14
2022-09-12T06:44:14.912Z,57.96
2022-09-12T06:46:42.087Z,57.89
2022-09-12T06:49:09.548Z,57.23
2022-09-12T06:51:36.470Z,57.42
2022-09-12T06:54:03.818Z,57.36
2022-09-12T06:56:30.559Z,57.28
2022-09-12T06:58:59.440Z,57.44
2022-09-12T07:01:28.947Z,57.63
2022-09-12T07:03:59.446Z,57.30
2022-09-12T07:06:31.889Z,57.27
2022-09-12T07:08:59.897Z,56.34
2022-09-12T07:11:31.745Z,55.95
2022-09-12T07:14:00.670Z,55.75
2022-09-12T07:16:28.189Z,55.14
2022-09-12T07:19:00.242Z,54.71
2022-09-12T07:21:27.491Z,54.84
2022-09-12T07:23:57.320Z,54.94
2022-09-12T07:26:25.276Z,54.84
2022-09-12T07:29:07.821Z,54.82
2022-09-12T07:31:43.138Z,54.05
2022-09-12T07:34:09.954Z,53.58
2022-09-12T07:36:37.314Z,53.26
2022-09-12T07:39:04.163Z,52.65
2022-09-12T07:41:34.056Z,52.45
2022-09-12T07:44:02.335Z,51.32
2022-09-12T07:46:30.392Z,50.95
2022-09-12T07:48:59.038Z,49.14
2022-09-12T07:51:27.295Z,48.15
2022-09-12T07:53:54.424Z,48.08
2022-09-12T07:56:24.061Z,47.25
2022-09-12T07:58:53.089Z,45.84
2022-09-12T08:01:24.907Z,44.56
2022-09-12T08:03:59.452Z,43.87
2022-09-12T08:06:27.735Z,42.71
2022-09-12T08:08:56.604Z,41.82
2022-09-12T08:11:24.991Z,42.01
2022-09-12T08:13:55.852Z,41.62
2022-09-12T08:16:25.206Z,41.40
2022-09-12T08:18:51.838Z,42.09
2022-09-12T08:21:21.554Z,42.37
2022-09-12T08:23:51.720Z,42.80
2022-09-12T08:26:18.598Z,41.62
2022-09-12T08:28:46.003Z,40.06
2022-09-12T08:31:15.345Z,39.06
2022-09-12T08:33:42.641Z,36.45
2022-09-12T08:36:15.081Z,33.54
2022-09-12T08:38:44.559Z,31.89
2022-09-12T08:41:41.758Z,29.29
2022-09-12T08:44:26.896Z,27.98
2022-09-12T08:47:08.648Z,26.35
2022-09-12T08:49:42.251Z,25.97
2022-09-12T08:52:17.432Z,26.03
2022-09-12T08:54:45.606Z,24.92
2022-09-12T08:57:15.264Z,25.03
2022-09-12T08:59:44.928Z,24.28
2022-09-12T09:02:38.879Z,23.08
2022-09-12T09:05:34.357Z,21.93
2022-09-12T09:08:19.525Z,21.37
2022-09-12T09:10:53.093Z,20.55
2022-09-12T09:13:59.222Z,20.84
2022-09-12T09:16:32.431Z,21.69
2022-09-12T09:19:04.478Z,22.49
2022-09-12T09:21:52.617Z,22.37
2022-09-12T09:24:26.653Z,23.21
2022-09-12T09:26:56.650Z,23.44
2022-09-12T09:29:45.688Z,22.21
2022-09-12T09:32:18.618Z,21.86
2022-09-12T09:34:46.181Z,21.60
2022-09-12T09:37:20.278Z,21.47
2022-09-12T09:39:50.154Z,21.04
2022-09-12T09:42:22.889Z,21.59
2022-09-12T09:44:53.627Z,21.52
2022-09-12T09:47:20.445Z,21.95
2022-09-12T09:49:47.663Z,21.72
2022-09-12T09:52:17.577Z,21.71
2022-09-12T09:54:53.484Z,21.18
2022-09-12T09:57:35.192Z,20.19
2022-09-12T10:00:21.928Z,20.30
2022-09-12T10:03:32.907Z,20.79
2022-09-12T10:06:41.202Z,21.19
2022-09-12T10:09:27.659Z,20.51
2022-09-12T10:11:56.754Z,19.44
2022-09-12T10:14:37.451Z,19.26
2022-09-12T10:17:22.549Z,19.37
2022-09-12T10:20:04.489Z,18.67
2022-09-12T10:22:35.960Z,17.64
2022-09-12T10:25:04.062Z,17.38
2022-09-12T10:27:32.997Z,16.60
2022-09-12T10:30:14.605Z,16.28
2022-09-12T10:32:53.330Z,15.87
2022-09-12T10:35:28.557Z,15.50
2022-09-12T10:38:02.675Z,15.17
2022-09-12T10:40:36.948Z,15.58
2022-09-12T10:43:17.245Z,15.08
2022-09-12T10:45:43.957Z,15.08
2022-09-12T10:48:29.486Z,15.37
2022-09-12T10:50:57.273Z,14.78
2022-09-12T10:53:34.201Z,15.05
2022-09-12T10:56:22.490Z,14.13
2022-09-12T10:59:16.896Z,13.96
2022-09-12T11:02:00.830Z,13.77
2022-09-12T11:04:58.107Z,14.69
2022-09-12T11:07:36.603Z,14.33
2022-09-12T11:10:44.619Z,14.62
2022-09-12T11:13:26.247Z,14.55
2022-09-12T11:16:05.267Z,14.52
2022-09-12T11:18:55.619Z,14.76
2022-09-12T11:21:50.919Z,14.49
2022-09-12T11:24:37.306Z,13.58
2022-09-12T11:27:38.857Z,13.14
2022-09-12T11:30:11.100Z,13.77
2022-09-12T11:32:47.582Z,13.43
2022-09-12T11:35:20.158Z,12.84
2022-09-12T11:38:08.409Z,12.98
2022-09-12T11:40:44.721Z,12.59
2022-09-12T11:43:38.535Z,12.68
2022-09-12T11:46:32.559Z,12.95
2022-09-12T11:49:35.734Z,12.45
2022-09-12T11:52:18.967Z,13.16
2022-09-12T11:54:59.671Z,12.98
2022-09-12T11:57:44.358Z,13.36
2022-09-12T12:00:36.996Z,12.79
2022-09-12T12:03:27.292Z,12.69
2022-09-12T12:06:07.103Z,12.78
2022-09-12T12:08:40.768Z,13.55
2022-09-12T12:11:08.892Z,13.84
2022-09-12T12:14:00.278Z,14.00
2022-09-12T12:16:33.851Z,15.16
2022-09-12T12:19:06.481Z,16.15
2022-09-12T12:21:48.328Z,16.41
2022-09-12T12:24:19.994Z,17.35
2022-09-12T12:27:23.487Z,17.13
2022-09-12T12:29:50.337Z,17.68
2022-09-12T12:32:17.654Z,17.67
2022-09-12T12:34:46.607Z,18.40
2022-09-12T12:37:19.056Z,18.56
2022-09-12T12:39:55.698Z,18.25
2022-09-12T12:42:38.046Z,17.37
2022-09-12T12:45:18.235Z,18.10
2022-09-12T12:47:50.049Z,18.28
2022-09-12T12:50:16.612Z,18.19
2022-09-12T12:52:59.893Z,18.88
2022-09-12T12:55:33.374Z,18.27
2022-09-12T12:58:02.086Z,17.88
2022-09-12T13:00:32.239Z,18.34
2022-09-12T13:03:06.695Z,17.25
2022-09-12T13:05:45.482Z,16.96
2022-09-12T13:08:30.358Z,16.27
2022-09-12T13:11:14.466Z,16.36
2022-09-12T13:14:05.013Z,16.47
2022-09-12T13:16:40.773Z,17.10
2022-09-12T13:19:18.189Z,18.32
2022-09-12T13:22:05.739Z,19.67
2022-09-12T13:24:33.137Z,20.29
2022-09-12T13:27:00.074Z,20.44
2022-09-12T13:29:28.064Z,20.38
2022-09-12T13:32:04.575Z,20.71
2022-09-12T13:34:35.443Z,21.28
2022-09-12T13:37:16.084Z,21.26
2022-09-12T13:39:57.623Z,21.83
2022-09-12T13:42:46.196Z,22.60
2022-09-12T13:45:23.031Z,23.29
2022-09-12T13:48:16.890Z,23.98
2022-09-12T13:50:58.281Z,24.83
2022-09-12T13:53:31.269Z,25.52
2022-09-12T13:56:01.847Z,26.36
2022-09-12T13:58:34.578Z,27.01
2022-09-12T14:01:41.447Z,27.78
2022-09-12T14:04:39.442Z,28.42
2022-09-12T14:07:20.585Z,28.93
2022-09-12T14:09:57.308Z,29.79
2022-09-12T14:12:43.636Z,30.11
2022-09-12T14:15:20.020Z,29.92
2022-09-12T14:17:52.810Z,30.59
2022-09-12T14:20:23.296Z,31.14
2022-09-12T14:22:52.159Z,31.70
2022-09-12T14:25:25.661Z,31.88
2022-09-12T14:27:55.108Z,32.82
2022-09-12T14:30:23.931Z,32.80
2022-09-12T14:33:05.676Z,32.94
2022-09-12T14:35:39.217Z,33.28
2022-09-12T14:38:15.331Z,34.08
2022-09-12T14:40:45.058Z,34.31
2022-09-12T14:43:26.741Z,35.30
2022-09-12T14:46:06.329Z,35.81
2022-09-12T14:48:43.192Z,36.11
2022-09-12T14:51:21.428Z,36.71
2022-09-12T14:53:49.500Z,36.88
2022-09-12T14:56:16.679Z,37.12
2022-09-12T14:58:43.376Z,37.25
2022-09-12T15:01:12.798Z,37.62
2022-09-12T15:03:44.937Z,37.22
2022-09-12T15:06:38.334Z,38.04
2022-09-12T15:09:09.181Z,37.59
2022-09-12T15:11:36.439Z,37.55
2022-09-12T15:14:15.669Z,37.84
2022-09-12T15:16:42.894Z,37.85
2022-09-12T15:19:09.814Z,38.09
2022-09-12T15:21:36.523Z,38.09
2022-09-12T15:24:03.414Z,38.47
2022-09-12T15:26:31.731Z,38.65
2022-09-12T15:28:58.510Z,38.73
2022-09-12T15:31:30.334Z,38.84
2022-09-12T15:33:59.387Z,39.00
2022-09-12T15:36:27.515Z,38.89
2022-09-12T15:38:54.328Z,38.82
2022-09-12T15:41:24.758Z,38.56
2022-09-12T15:43:51.754Z,38.91
2022-09-12T15:46:19.356Z,39.03
2022-09-12T15:48:46.209Z,39.28
2022-09-12T15:51:15.909Z,39.22
2022-09-12T15:53:45.967Z,39.60
2022-09-12T15:56:13.090Z,39.88
2022-09-12T15:58:54.723Z,40.01
2022-09-12T16:01:24.434Z,40.13
2022-09-12T16:03:51.187Z,40.61
2022-09-12T16:06:18.145Z,40.58
2022-09-12T16:08:45.046Z,40.94
2022-09-12T16:11:20.993Z,41.27
2022-09-12T16:13:47.773Z,41.77
2022-09-12T16:16:14.472Z,41.85
2022-09-12T16:18:42.013Z,42.15
2022-09-12T16:21:14.068Z,42.25
2022-09-12T16:23:45.511Z,42.04
2022-09-12T16:26:12.335Z,42.36
2022-09-12T16:28:39.355Z,42.75
2022-09-12T16:31:08.593Z,42.75
2022-09-12T16:33:35.833Z,43.02
2022-09-12T16:36:13.883Z,43.58
2022-09-12T16:38:49.419Z,44.09
2022-09-12T16:41:17.406Z,44.28
2022-09-12T16:43:44.814Z,44.51
2022-09-12T16:46:24.126Z,45.20
2022-09-12T16:48:56.256Z,44.79
2022-09-12T16:51:26.218Z,45.54
2022-09-12T16:53:53.894Z,45.57
2022-09-12T16:56:20.984Z,45.48
2022-09-12T16:58:49.823Z,45.99
2022-09-12T17:01:20.344Z,45.98
2022-09-12T17:03:47.690Z,46.49
2022-09-12T17:06:17.125Z,46.78
2022-09-12T17:08:46.595Z,47.04
2022-09-12T17:11:16.296Z,47.10
2022-09-12T17:14:03.938Z,46.96
2022-09-12T17:16:32.965Z,46.80
2022-09-12T17:18:59.721Z,47.58
2022-09-12T17:21:26.390Z,47.58
2022-09-12T17:23:53.178Z,47.88
2022-09-12T17:26:21.050Z,48.27
2022-09-12T17:28:48.581Z,48.46
2022-09-12T17:31:16.182Z,48.66
2022-09-12T17:33:43.614Z,48.92
2022-09-12T17:36:15.097Z,49.13
2022-09-12T17:38:44.344Z,49.20
2022-09-12T17:41:21.321Z,49.40
2022-09-12T17:43:50.917Z,49.41
2022-09-12T17:46:19.400Z,49.60
2022-09-12T17:48:52.038Z,49.73
2022-09-12T17:51:18.832Z,49.81
2022-09-12T17:53:45.727Z,49.92
2022-09-12T17:56:12.623Z,50.11
2022-09-12T17:58:39.411Z,50.10
2022-09-12T18:01:28.985Z,50.24
2022-09-12T18:03:57.197Z,50.18
2022-09-12T18:06:24.869Z,50.32
2022-09-12T18:08:51.986Z,50.56
2022-09-12T18:11:18.972Z,50.91
2022-09-12T18:13:45.810Z,51.07
2022-09-12T18:16:13.702Z,51.14
2022-09-12T18:18:40.873Z,51.23
2022-09-12T18:21:10.402Z,51.50
2022-09-12T18:23:37.431Z,51.59
2022-09-12T18:26:07.102Z,51.97
2022-09-12T18:28:39.072Z,52.20
2022-09-12T18:31:14.295Z,52.32
2022-09-12T18:33:41.711Z,52.60
2022-09-12T18:36:11.112Z,52.87
2022-09-12T18:38:38.865Z,53.04
2022-09-12T18:41:17.488Z,53.45
2022-09-12T18:43:44.679Z,53.39
2022-09-12T18:46:17.073Z,53.85
2022-09-12T18:48:45.577Z,53.91
2022-09-12T18:51:20.975Z,54.03
2022-09-12T18:53:56.525Z,54.60
2022-09-12T18:56:27.063Z,54.50
2022-09-12T18:58:56.842Z,54.56
2022-09-12T19:01:31.471Z,54.97
2022-09-12T19:03:59.884Z,54.49
2022-09-12T19:06:32.382Z,54.94
2022-09-12T19:09:03.886Z,55.01
2022-09-12T19:11:33.953Z,55.45
2022-09-12T19:14:01.362Z,55.42
2022-09-12T19:16:29.146Z,55.66
2022-09-12T19:18:57.298Z,55.97
2022-09-12T19:21:31.174Z,56.18
2022-09-12T19:24:05.479Z,56.27
2022-09-12T19:26:34.522Z,56.50
2022-09-12T19:29:03.506Z,56.44
2022-09-12T19:31:31.812Z,56.76
2022-09-12T19:34:03.633Z,56.82
2022-09-12T19:36:48.106Z,56.77
2022-09-12T19:39:17.290Z,57.17
2022-09-12T19:41:44.596Z,56.82
2022-09-12T19:44:11.753Z,57.29
2022-09-12T19:46:38.804Z,57.61
2022-09-12T19:49:07.350Z,57.47
2022-09-12T19:51:34.278Z,57.56
2022-09-12T19:54:01.075Z,57.69
2022-09-12T19:56:27.714Z,57.96
2022-09-12T19:58:56.823Z,57.98
2022-09-12T20:01:28.446Z,57.79
2022-09-12T20:03:56.790Z,58.06
2022-09-12T20:06:25.863Z,57.92
2022-09-12T20:08:53.037Z,58.05
2022-09-12T20:11:21.906Z,58.15
2022-09-12T20:13:48.592Z,57.83
2022-09-12T20:16:25.728Z,58.10
2022-09-12T20:19:02.003Z,58.17
2022-09-12T20:21:35.901Z,58.26
2022-09-12T20:24:06.882Z,58.44
2022-09-12T20:26:33.573Z,58.68
2022-09-12T20:29:00.892Z,58.62
2022-09-12T20:31:27.876Z,58.78
2022-09-12T20:33:55.098Z,58.81
2022-09-12T20:36:22.358Z,58.81
2022-09-12T20:38:56.900Z,59.08
2022-09-12T20:41:27.539Z,59.09
2022-09-12T20:43:56.055Z,59.42
2022-09-12T20:46:24.875Z,59.59
2022-09-12T20:48:51.902Z,59.80
2022-09-12T20:51:19.794Z,59.57
2022-09-12T20:53:47.082Z,59.90
2022-09-12T20:56:15.431Z,59.88
2022-09-12T20:58:44.491Z,60.29
2022-09-12T21:01:13.777Z,60.54
2022-09-12T21:03:41.620Z,60.96
2022-09-12T21:06:09.793Z,61.09
2022-09-12T21:08:37.242Z,60.93
2022-09-12T21:11:04.499Z,60.87
2022-09-12T21:13:31.710Z,60.86
2022-09-12T21:16:07.487Z,60.89
2022-09-12T21:18:35.739Z,61.13
2022-09-12T21:21:03.451Z,61.20
2022-09-12T21:23:30.525Z,60.89
2022-09-12T21:26:00.389Z,61.00
2022-09-12T21:28:27.285Z,61.21
2022-09-12T21:30:53.960Z,60.60
2022-09-12T21:33:21.674Z,60.79
2022-09-12T21:35:49.245Z,60.81
2022-09-12T21:38:16.935Z,60.92
2022-09-12T21:40:43.696Z,61.11
2022-09-12T21:43:12.796Z,60.88
2022-09-12T21:45:40.054Z,60.87
2022-09-12T21:48:07.081Z,60.87
2022-09-12T21:50:33.752Z,61.06
2022-09-12T21:53:00.359Z,60.89
2022-09-12T21:55:27.523Z,60.85
2022-09-12T21:57:55.683Z,60.77
2022-09-12T22:00:23.279Z,61.08
2022-09-12T22:02:50.091Z,60.97
2022-09-12T22:05:17.428Z,60.82
2022-09-12T22:07:44.160Z,61.05
2022-09-12T22:10:10.843Z,60.81
2022-09-12T22:12:37.559Z,61.28
2022-09-12T22:15:22.969Z,61.08
2022-09-12T22:17:51.539Z,61.15
2022-09-12T22:20:18.298Z,61.18
2022-09-12T22:23:03.637Z,61.15
2022-09-12T22:25:30.751Z,61.03
2022-09-12T22:27:58.317Z,61.41
2022-09-12T22:30:27.338Z,61.61
2022-09-12T22:32:54.042Z,61.57
2022-09-12T22:35:21.153Z,61.60
2022-09-12T22:37:48.098Z,61.65
2022-09-12T22:40:15.622Z,61.61
2022-09-12T22:42:42.697Z,61.83
2022-09-12T22:45:09.739Z,61.75
2022-09-12T22:47:36.443Z,61.67
2022-09-12T22:50:03.222Z,61.68
2022-09-12T22:52:29.904Z,61.75
2022-09-12T22:54:57.309Z,61.84
2022-09-12T22:57:24.048Z,61.58
2022-09-12T22:59:50.893Z,61.83
2022-09-12T23:02:17.498Z,61.64
2022-09-12T23:04:44.332Z,61.96
2022-09-12T23:07:11.136Z,62.06
2022-09-12T23:09:37.799Z,62.04
2022-09-12T23:12:04.845Z,62.13
2022-09-12T23:14:31.455Z,62.12
2022-09-12T23:16:58.113Z,62.11
2022-09-12T23:19:24.907Z,62.16
2022-09-12T23:21:52.161Z,62.12
2022-09-12T23:24:18.808Z,62.23
2022-09-12T23:26:46.133Z,62.37
2022-09-12T23:29:12.744Z,62.41
2022-09-12T23:31:39.684Z,62.48
2022-09-12T23:34:06.503Z,62.28
2022-09-12T23:36:34.405Z,62.47
2022-09-12T23:39:01.447Z,62.35
2022-09-12T23:41:29.722Z,62.01
2022-09-12T23:43:56.613Z,62.28
2022-09-12T23:46:23.297Z,62.28
2022-09-12T23:48:50.256Z,62.35
2022-09-12T23:51:16.992Z,62.20
2022-09-12T23:53:43.628Z,62.37
2022-09-12T23:56:12.770Z,62.44
2022-09-12T23:58:39.541Z,62.49
